To NAV CANADA Home Page Login to a new session Search on AWWS site Feedback and Comments Disclaimer Vers la page française équivalente Tips FAQ What's new on the site To the Forecasts and Observations / NOTAM section To "File a Flight Plan" website Publications and other links Update of the User's profile FIC Telephone Numbers My Weather Data Folder Route Weather Data Regional Weather Data Local Weather Data To the Forecasts and Observations / NOTAM section
Request Generated 04/30/2017 at 05:01:54 UTC . Weather information available at that time is displayed.

METAR/TAF

ARVIAT/NU    (show WxCam)

METAR CYEK 300500Z AUTO 19008KT 3SM -SN OVC026 M07/M09 A3012 RMK
SLP202=
SPECI CYEK 300448Z AUTO 20007KT 5SM -SN OVC034 M07/M10 A3012 RMK
SLP203=
SPECI CYEK 300401Z AUTO VRB02KT 9SM -SN OVC034 M08/M12 A3016 RMK
SLP214=
METAR CYEK 300400Z AUTO VRB02KT 9SM OVC034 M08/M12 A3016 RMK SLP214=
METAR CYEK 300300Z AUTO 16003KT 9SM OVC036 M09/M12 A3018 RMK SLP222=

TAF CYEK 292338Z 3000/3012 20006KT P6SM FEW020 BKN080 TEMPO 3000/3003
4SM -SN BR OVC015
BECMG 3001/3003 19012KT
FM300300 19012KT P6SM -SN SCT010 OVC025 TEMPO 3003/3012 21/4SM
-SN BR OVC008 PROB30 3006/3012 1SM -SN BR OVC006
RMK FCST BASED ON AUTO OBS. NXT FCST BY 300600Z=
Your time UTC time
Weather data provided by Environment Canada and NAV CANADA